sensor_id;sensor_type;location;lat;lon;timestamp;pressure;altitude;pressure_sealevel;temperature;humidity
11212;BME280;5663;50.864;12.096;2023-02-22T00:00:43;99463.84;;;11.25;68.03
11212;BME280;5663;50.864;12.096;2023-02-22T00:03:15;99453.63;;;11.22;68.02
11212;BME280;5663;50.864;12.096;2023-02-22T00:05:44;99457.81;;;11.24;67.78
11212;BME280;5663;50.864;12.096;2023-02-22T00:08:14;99463.00;;;11.24;67.99
11212;BME280;5663;50.864;12.096;2023-02-22T00:10:43;99456.13;;;11.23;68.02
11212;BME280;5663;50.864;12.096;2023-02-22T00:13:13;99456.13;;;11.23;67.93
11212;BME280;5663;50.864;12.096;2023-02-22T00:15:41;99451.91;;;11.21;68.02
11212;BME280;5663;50.864;12.096;2023-02-22T00:18:12;99440.06;;;11.15;68.13
11212;BME280;5663;50.864;12.096;2023-02-22T00:20:40;99453.22;;;11.12;68.41
11212;BME280;5663;50.864;12.096;2023-02-22T00:23:13;99434.56;;;11.04;68.70
11212;BME280;5663;50.864;12.096;2023-02-22T00:29:30;99446.59;;;11.06;68.66
11212;BME280;5663;50.864;12.096;2023-02-22T00:31:59;99446.66;;;11.05;68.64
11212;BME280;5663;50.864;12.096;2023-02-22T00:34:27;99441.44;;;11.05;68.81
11212;BME280;5663;50.864;12.096;2023-02-22T00:36:55;99441.53;;;11.03;68.86
11212;BME280;5663;50.864;12.096;2023-02-22T00:39:22;99442.47;;;11.02;68.95
11212;BME280;5663;50.864;12.096;2023-02-22T00:41:50;99433.19;;;10.97;68.99
11212;BME280;5663;50.864;12.096;2023-02-22T00:44:19;99436.66;;;10.97;69.23
11212;BME280;5663;50.864;12.096;2023-02-22T00:46:48;99440.13;;;10.98;69.02
11212;BME280;5663;50.864;12.096;2023-02-22T00:49:16;99440.13;;;10.98;69.10
11212;BME280;5663;50.864;12.096;2023-02-22T00:51:44;99441.00;;;10.97;69.24
11212;BME280;5663;50.864;12.096;2023-02-22T00:54:12;99435.81;;;10.97;69.15
11212;BME280;5663;50.864;12.096;2023-02-22T00:56:39;99436.88;;;10.93;69.41
11212;BME280;5663;50.864;12.096;2023-02-22T00:59:08;99441.19;;;10.94;69.23
11212;BME280;5663;50.864;12.096;2023-02-22T01:01:35;99431.09;;;10.88;69.51
11212;BME280;5663;50.864;12.096;2023-02-22T01:04:05;99434.47;;;10.90;69.63
11212;BME280;5663;50.864;12.096;2023-02-22T01:06:32;99430.00;;;10.92;69.55
11212;BME280;5663;50.864;12.096;2023-02-22T01:09:00;99433.69;;;10.88;69.45
11212;BME280;5663;50.864;12.096;2023-02-22T01:11:29;99428.63;;;10.84;69.66
11212;BME280;5663;50.864;12.096;2023-02-22T01:13:58;99426.94;;;10.83;69.81
11212;BME280;5663;50.864;12.096;2023-02-22T01:16:25;99405.09;;;10.70;69.90
11212;BME280;5663;50.864;12.096;2023-02-22T01:18:54;99416.69;;;10.80;69.90
11212;BME280;5663;50.864;12.096;2023-02-22T01:21:23;99415.03;;;10.79;69.98
11212;BME280;5663;50.864;12.096;2023-02-22T01:23:51;99411.50;;;10.80;70.01
11212;BME280;5663;50.864;12.096;2023-02-22T01:26:20;99408.00;;;10.81;69.92
11212;BME280;5663;50.864;12.096;2023-02-22T01:28:47;99402.84;;;10.80;70.08
11212;BME280;5663;50.864;12.096;2023-02-22T01:31:15;99401.09;;;10.80;70.05
11212;BME280;5663;50.864;12.096;2023-02-22T01:33:44;99397.66;;;10.80;70.15
11212;BME280;5663;50.864;12.096;2023-02-22T01:36:12;99393.47;;;10.77;70.09
11212;BME280;5663;50.864;12.096;2023-02-22T01:38:40;99386.75;;;10.73;70.14
11212;BME280;5663;50.864;12.096;2023-02-22T01:41:11;99392.44;;;10.80;70.01
11212;BME280;5663;50.864;12.096;2023-02-22T01:43:38;99392.53;;;10.78;70.27
11212;BME280;5663;50.864;12.096;2023-02-22T01:46:19;99392.69;;;10.75;70.23
11212;BME280;5663;50.864;12.096;2023-02-22T01:48:49;99389.25;;;10.75;70.23
11212;BME280;5663;50.864;12.096;2023-02-22T01:51:20;99368.16;;;10.64;70.36
11212;BME280;5663;50.864;12.096;2023-02-22T01:53:52;99391.00;;;10.74;70.35
11212;BME280;5663;50.864;12.096;2023-02-22T01:56:21;99385.81;;;10.74;70.44
11212;BME280;5663;50.864;12.096;2023-02-22T01:58:53;99388.41;;;10.74;70.34
11212;BME280;5663;50.864;12.096;2023-02-22T02:01:23;99391.84;;;10.75;70.53
11212;BME280;5663;50.864;12.096;2023-02-22T02:03:53;99387.50;;;10.75;70.59
11212;BME280;5663;50.864;12.096;2023-02-22T02:06:23;99389.16;;;10.76;70.38
11212;BME280;5663;50.864;12.096;2023-02-22T02:08:57;99388.31;;;10.76;70.49
11212;BME280;5663;50.864;12.096;2023-02-22T02:11:27;99383.97;;;10.76;70.35
11212;BME280;5663;50.864;12.096;2023-02-22T02:13:56;99379.69;;;10.75;70.41
11212;BME280;5663;50.864;12.096;2023-02-22T02:16:29;99375.56;;;10.71;70.64
11212;BME280;5663;50.864;12.096;2023-02-22T02:19:03;99375.56;;;10.71;70.59
11212;BME280;5663;50.864;12.096;2023-02-22T02:22:14;99372.88;;;10.73;70.71
11212;BME280;5663;50.864;12.096;2023-02-22T02:25:10;99373.78;;;10.72;70.60
11212;BME280;5663;50.864;12.096;2023-02-22T02:31:16;99367.00;;;10.69;70.75
11212;BME280;5663;50.864;12.096;2023-02-22T02:33:53;99362.66;;;10.70;70.70
11212;BME280;5663;50.864;12.096;2023-02-22T02:36:28;99356.59;;;10.69;70.89
11212;BME280;5663;50.864;12.096;2023-02-22T02:39:04;99366.16;;;10.69;70.85
11212;BME280;5663;50.864;12.096;2023-02-22T02:41:38;99345.56;;;10.64;70.79
11212;BME280;5663;50.864;12.096;2023-02-22T02:44:10;99357.59;;;10.67;70.84
11212;BME280;5663;50.864;12.096;2023-02-22T02:46:46;99347.19;;;10.67;70.98
11212;BME280;5663;50.864;12.096;2023-02-22T02:49:21;99324.47;;;10.53;71.06
11212;BME280;5663;50.864;12.096;2023-02-22T02:51:52;99341.91;;;10.68;71.15
11212;BME280;5663;50.864;12.096;2023-02-22T02:54:23;99353.22;;;10.67;71.13
11212;BME280;5663;50.864;12.096;2023-02-22T02:56:51;99348.88;;;10.68;70.89
11212;BME280;5663;50.864;12.096;2023-02-22T02:59:26;99350.63;;;10.67;71.10
11212;BME280;5663;50.864;12.096;2023-02-22T03:02:11;99344.50;;;10.68;71.14
11212;BME280;5663;50.864;12.096;2023-02-22T03:05:00;99330.91;;;10.63;71.13
11212;BME280;5663;50.864;12.096;2023-02-22T03:07:43;99341.16;;;10.66;71.11
11212;BME280;5663;50.864;12.096;2023-02-22T03:10:35;99345.44;;;10.67;71.07
11212;BME280;5663;50.864;12.096;2023-02-22T03:13:08;99340.22;;;10.67;71.05
11212;BME280;5663;50.864;12.096;2023-02-22T03:15:44;99349.69;;;10.68;70.98
11212;BME280;5663;50.864;12.096;2023-02-22T03:18:17;99353.38;;;10.64;71.31
11212;BME280;5663;50.864;12.096;2023-02-22T03:20:57;99348.31;;;10.61;71.62
11212;BME280;5663;50.864;12.096;2023-02-22T03:23:31;99347.59;;;10.59;71.47
11212;BME280;5663;50.864;12.096;2023-02-22T03:26:03;99345.66;;;10.63;71.39
11212;BME280;5663;50.864;12.096;2023-02-22T03:28:35;99306.16;;;10.39;71.28
11212;BME280;5663;50.864;12.096;2023-02-22T03:31:07;99355.06;;;10.65;71.40
11212;BME280;5663;50.864;12.096;2023-02-22T03:33:39;99342.97;;;10.64;71.45
11212;BME280;5663;50.864;12.096;2023-02-22T03:36:12;99350.78;;;10.64;71.56
11212;BME280;5663;50.864;12.096;2023-02-22T03:38:43;99321.13;;;10.51;71.34
11212;BME280;5663;50.864;12.096;2023-02-22T03:41:15;99327.72;;;10.58;71.41
11212;BME280;5663;50.864;12.096;2023-02-22T03:43:47;99347.34;;;10.64;71.52
11212;BME280;5663;50.864;12.096;2023-02-22T03:46:17;99337.72;;;10.66;71.46
11212;BME280;5663;50.864;12.096;2023-02-22T03:48:49;99335.94;;;10.66;71.49
11212;BME280;5663;50.864;12.096;2023-02-22T03:51:21;99340.38;;;10.64;71.70
11212;BME280;5663;50.864;12.096;2023-02-22T03:53:50;99310.88;;;10.48;71.75
11212;BME280;5663;50.864;12.096;2023-02-22T03:56:23;99342.97;;;10.64;71.76
11212;BME280;5663;50.864;12.096;2023-02-22T03:58:53;99345.56;;;10.64;71.81
11212;BME280;5663;50.864;12.096;2023-02-22T04:01:21;99331.19;;;10.57;71.86
11212;BME280;5663;50.864;12.096;2023-02-22T04:03:49;99340.38;;;10.64;71.88
11212;BME280;5663;50.864;12.096;2023-02-22T04:06:17;99340.47;;;10.63;71.97
11212;BME280;5663;50.864;12.096;2023-02-22T04:08:46;99300.81;;;10.42;71.87
11212;BME280;5663;50.864;12.096;2023-02-22T04:11:14;99323.41;;;10.57;72.09
11212;BME280;5663;50.864;12.096;2023-02-22T04:13:42;99324.31;;;10.56;72.18
11212;BME280;5663;50.864;12.096;2023-02-22T04:16:09;99328.53;;;10.58;72.25
11212;BME280;5663;50.864;12.096;2023-02-22T04:18:37;99329.47;;;10.57;72.21
11212;BME280;5663;50.864;12.096;2023-02-22T04:21:05;99326.94;;;10.56;72.33
11212;BME280;5663;50.864;12.096;2023-02-22T04:23:34;99335.66;;;10.55;72.38
11212;BME280;5663;50.864;12.096;2023-02-22T04:26:03;99320.97;;;10.54;72.51
11212;BME280;5663;50.864;12.096;2023-02-22T04:28:31;99330.31;;;10.58;72.38
11212;BME280;5663;50.864;12.096;2023-02-22T04:30:59;99323.59;;;10.54;72.43
11212;BME280;5663;50.864;12.096;2023-02-22T04:33:26;99320.81;;;10.57;72.52
11212;BME280;5663;50.864;12.096;2023-02-22T04:35:55;99320.91;;;10.55;72.68
11212;BME280;5663;50.864;12.096;2023-02-22T04:38:25;99321.88;;;10.53;72.77
11212;BME280;5663;50.864;12.096;2023-02-22T04:40:53;99319.28;;;10.53;72.87
11212;BME280;5663;50.864;12.096;2023-02-22T04:43:23;99318.53;;;10.51;72.85
11212;BME280;5663;50.864;12.096;2023-02-22T04:45:50;99322.97;;;10.49;73.06
11212;BME280;5663;50.864;12.096;2023-02-22T04:48:18;99318.09;;;10.43;73.20
11212;BME280;5663;50.864;12.096;2023-02-22T04:50:47;99307.00;;;10.39;73.32
11212;BME280;5663;50.864;12.096;2023-02-22T04:53:16;99306.00;;;10.42;73.27
11212;BME280;5663;50.864;12.096;2023-02-22T04:55:44;99309.38;;;10.44;73.43
11212;BME280;5663;50.864;12.096;2023-02-22T04:58:12;99304.00;;;10.47;73.35
11212;BME280;5663;50.864;12.096;2023-02-22T05:00:41;99228.34;;;10.01;73.25
11212;BME280;5663;50.864;12.096;2023-02-22T05:03:09;99302.16;;;10.49;73.14
11212;BME280;5663;50.864;12.096;2023-02-22T05:05:37;99298.66;;;10.50;73.08
11212;BME280;5663;50.864;12.096;2023-02-22T05:08:05;99299.41;;;10.52;73.24
11212;BME280;5663;50.864;12.096;2023-02-22T05:10:34;99296.06;;;10.50;73.07
11212;BME280;5663;50.864;12.096;2023-02-22T05:13:02;99286.75;;;10.46;73.31
11212;BME280;5663;50.864;12.096;2023-02-22T05:15:31;99287.56;;;10.46;73.46
11212;BME280;5663;50.864;12.096;2023-02-22T05:18:00;99290.88;;;10.50;73.33
11212;BME280;5663;50.864;12.096;2023-02-22T05:20:30;99282.97;;;10.51;73.28
11212;BME280;5663;50.864;12.096;2023-02-22T05:22:59;99293.28;;;10.53;73.21
11212;BME280;5663;50.864;12.096;2023-02-22T05:25:28;99287.94;;;10.56;73.13
11212;BME280;5663;50.864;12.096;2023-02-22T05:27:57;99286.25;;;10.55;73.31
11212;BME280;5663;50.864;12.096;2023-02-22T05:30:27;99286.25;;;10.55;73.06
11212;BME280;5663;50.864;12.096;2023-02-22T05:32:55;99286.09;;;10.58;73.09
11212;BME280;5663;50.864;12.096;2023-02-22T05:35:28;99284.41;;;10.57;73.23
11212;BME280;5663;50.864;12.096;2023-02-22T05:37:56;99271.44;;;10.40;73.40
11212;BME280;5663;50.864;12.096;2023-02-22T05:40:27;99282.72;;;10.56;73.32
11212;BME280;5663;50.864;12.096;2023-02-22T05:42:56;99277.53;;;10.56;73.33
11212;BME280;5663;50.864;12.096;2023-02-22T05:45:26;99280.13;;;10.56;73.35
11212;BME280;5663;50.864;12.096;2023-02-22T05:47:54;99279.19;;;10.57;73.25
11212;BME280;5663;50.864;12.096;2023-02-22T05:50:22;99279.19;;;10.57;73.26
11212;BME280;5663;50.864;12.096;2023-02-22T05:52:52;99275.69;;;10.58;73.28
11212;BME280;5663;50.864;12.096;2023-02-22T05:55:22;99233.88;;;10.29;73.42
11212;BME280;5663;50.864;12.096;2023-02-22T05:57:51;99279.97;;;10.59;73.24
11212;BME280;5663;50.864;12.096;2023-02-22T06:00:20;99272.16;;;10.59;73.22
11212;BME280;5663;50.864;12.096;2023-02-22T06:02:53;99272.16;;;10.59;73.29
11212;BME280;5663;50.864;12.096;2023-02-22T06:05:21;99281.66;;;10.60;73.27
11212;BME280;5663;50.864;12.096;2023-02-22T06:07:49;99283.41;;;10.59;73.22
11212;BME280;5663;50.864;12.096;2023-02-22T06:10:19;99277.38;;;10.59;73.14
11212;BME280;5663;50.864;12.096;2023-02-22T06:12:48;99276.44;;;10.60;73.26
11212;BME280;5663;50.864;12.096;2023-02-22T06:15:17;99276.38;;;10.62;73.29
11212;BME280;5663;50.864;12.096;2023-02-22T06:17:46;99279.81;;;10.62;73.23
11212;BME280;5663;50.864;12.096;2023-02-22T06:20:17;99278.06;;;10.63;73.29
11212;BME280;5663;50.864;12.096;2023-02-22T06:22:46;99280.56;;;10.64;73.26
11212;BME280;5663;50.864;12.096;2023-02-22T06:25:15;99279.72;;;10.64;73.19
11212;BME280;5663;50.864;12.096;2023-02-22T06:27:45;99280.56;;;10.64;73.21
11212;BME280;5663;50.864;12.096;2023-02-22T06:30:13;99282.22;;;10.65;73.30
11212;BME280;5663;50.864;12.096;2023-02-22T06:32:41;99283.16;;;10.64;73.22
11212;BME280;5663;50.864;12.096;2023-02-22T06:35:09;99284.69;;;10.68;73.25
11212;BME280;5663;50.864;12.096;2023-02-22T06:37:38;99288.13;;;10.69;73.25
11212;BME280;5663;50.864;12.096;2023-02-22T06:40:07;99292.47;;;10.68;73.13
11212;BME280;5663;50.864;12.096;2023-02-22T06:42:38;99287.13;;;10.71;73.30
11212;BME280;5663;50.864;12.096;2023-02-22T06:45:09;99295.69;;;10.73;73.32
11212;BME280;5663;50.864;12.096;2023-02-22T06:47:38;99285.47;;;10.70;73.25
11212;BME280;5663;50.864;12.096;2023-02-22T06:50:07;99292.03;;;10.77;73.35
11212;BME280;5663;50.864;12.096;2023-02-22T06:52:43;99290.16;;;10.79;73.22
11212;BME280;5663;50.864;12.096;2023-02-22T06:55:16;99293.53;;;10.81;73.37
11212;BME280;5663;50.864;12.096;2023-02-22T06:57:44;99290.75;;;10.84;73.25
11212;BME280;5663;50.864;12.096;2023-02-22T07:00:16;99300.94;;;10.89;73.37
11212;BME280;5663;50.864;12.096;2023-02-22T07:02:44;99301.59;;;10.93;73.21
11212;BME280;5663;50.864;12.096;2023-02-22T07:05:15;99271.84;;;10.81;73.31
11212;BME280;5663;50.864;12.096;2023-02-22T07:07:44;99286.31;;;10.87;73.25
11212;BME280;5663;50.864;12.096;2023-02-22T07:10:17;99303.53;;;11.05;73.42
11212;BME280;5663;50.864;12.096;2023-02-22T07:12:46;99304.13;;;11.10;73.27
11212;BME280;5663;50.864;12.096;2023-02-22T07:15:16;99245.84;;;10.81;73.17
11212;BME280;5663;50.864;12.096;2023-02-22T07:17:46;99303.63;;;11.19;73.16
11212;BME280;5663;50.864;12.096;2023-02-22T07:20:13;99304.22;;;11.24;73.10
11212;BME280;5663;50.864;12.096;2023-02-22T07:22:41;99311.69;;;11.30;73.02
11212;BME280;5663;50.864;12.096;2023-02-22T07:25:09;99312.22;;;11.37;73.03
11212;BME280;5663;50.864;12.096;2023-02-22T07:27:40;99305.81;;;11.43;73.01
11212;BME280;5663;50.864;12.096;2023-02-22T07:30:16;99307.31;;;11.47;72.97
11212;BME280;5663;50.864;12.096;2023-02-22T07:32:45;99308.84;;;11.51;72.67
11212;BME280;5663;50.864;12.096;2023-02-22T07:35:15;99303.47;;;11.54;72.58
11212;BME280;5663;50.864;12.096;2023-02-22T07:37:43;99310.75;;;11.63;72.51
11212;BME280;5663;50.864;12.096;2023-02-22T07:40:11;99307.97;;;11.66;72.47
11212;BME280;5663;50.864;12.096;2023-02-22T07:42:54;99304.44;;;11.67;72.08
11212;BME280;5663;50.864;12.096;2023-02-22T07:45:30;99305.94;;;11.71;72.02
11212;BME280;5663;50.864;12.096;2023-02-22T07:48:05;99309.13;;;11.76;72.10
11212;BME280;5663;50.864;12.096;2023-02-22T07:50:35;99296.84;;;11.78;71.75
11212;BME280;5663;50.864;12.096;2023-02-22T07:53:10;99303.44;;;11.86;71.44
11212;BME280;5663;50.864;12.096;2023-02-22T07:55:39;99305.94;;;11.87;71.59
11212;BME280;5663;50.864;12.096;2023-02-22T07:58:11;99306.44;;;11.94;71.55
11212;BME280;5663;50.864;12.096;2023-02-22T08:00:43;99304.22;;;12.02;71.32
11212;BME280;5663;50.864;12.096;2023-02-22T08:03:18;99299.47;;;12.08;71.30
11212;BME280;5663;50.864;12.096;2023-02-22T08:05:48;99307.69;;;12.17;71.03
11212;BME280;5663;50.864;12.096;2023-02-22T08:08:20;99298.19;;;12.16;70.70
11212;BME280;5663;50.864;12.096;2023-02-22T08:10:48;99297.41;;;12.29;70.50
11212;BME280;5663;50.864;12.096;2023-02-22T08:13:22;99302.78;;;12.41;70.68
11212;BME280;5663;50.864;12.096;2023-02-22T08:16:00;99301.50;;;12.48;70.36
11212;BME280;5663;50.864;12.096;2023-02-22T08:18:35;99290.53;;;12.57;70.10
11212;BME280;5663;50.864;12.096;2023-02-22T08:21:04;99287.94;;;12.57;70.03
11212;BME280;5663;50.864;12.096;2023-02-22T08:23:35;99295.53;;;12.60;69.56
11212;BME280;5663;50.864;12.096;2023-02-22T08:26:10;99297.44;;;12.58;69.39
11212;BME280;5663;50.864;12.096;2023-02-22T08:28:45;99293.03;;;12.58;69.26
11212;BME280;5663;50.864;12.096;2023-02-22T08:31:23;99293.59;;;12.64;69.24
11212;BME280;5663;50.864;12.096;2023-02-22T08:33:54;99291.47;;;12.70;69.22
11212;BME280;5663;50.864;12.096;2023-02-22T08:36:27;99294.81;;;12.72;69.03
11212;BME280;5663;50.864;12.096;2023-02-22T08:39:00;99288.75;;;12.72;68.69
11212;BME280;5663;50.864;12.096;2023-02-22T08:41:37;99289.41;;;12.75;69.05
11212;BME280;5663;50.864;12.096;2023-02-22T08:44:10;99277.47;;;12.71;68.99
11212;BME280;5663;50.864;12.096;2023-02-22T08:46:48;99285.31;;;12.86;68.93
11212;BME280;5663;50.864;12.096;2023-02-22T08:49:18;99290.25;;;12.90;68.74
11212;BME280;5663;50.864;12.096;2023-02-22T08:51:49;99292.84;;;12.90;68.49
11212;BME280;5663;50.864;12.096;2023-02-22T08:54:21;99293.69;;;12.91;68.15
11212;BME280;5663;50.864;12.096;2023-02-22T08:56:51;99291.63;;;12.96;68.12
11212;BME280;5663;50.864;12.096;2023-02-22T08:59:20;99291.16;;;13.03;68.18
11212;BME280;5663;50.864;12.096;2023-02-22T09:01:56;99291.97;;;13.18;68.39
11212;BME280;5663;50.864;12.096;2023-02-22T09:04:24;99279.56;;;13.22;67.45
11212;BME280;5663;50.864;12.096;2023-02-22T09:06:55;99285.81;;;13.34;67.34
11212;BME280;5663;50.864;12.096;2023-02-22T09:09:28;99275.91;;;13.39;67.54
11212;BME280;5663;50.864;12.096;2023-02-22T09:11:57;99290.06;;;13.49;67.04
11212;BME280;5663;50.864;12.096;2023-02-22T09:14:25;99289.00;;;13.51;66.91
11212;BME280;5663;50.864;12.096;2023-02-22T09:17:00;99291.31;;;13.56;66.72
11212;BME280;5663;50.864;12.096;2023-02-22T09:19:34;99283.63;;;13.67;66.68
11212;BME280;5663;50.864;12.096;2023-02-22T09:22:05;99276.13;;;13.75;66.22
11212;BME280;5663;50.864;12.096;2023-02-22T09:24:36;99255.63;;;13.69;65.73
11212;BME280;5663;50.864;12.096;2023-02-22T09:27:10;99277.22;;;13.86;65.28
11212;BME280;5663;50.864;12.096;2023-02-22T09:29:39;99275.13;;;13.91;65.23
11212;BME280;5663;50.864;12.096;2023-02-22T09:32:12;99271.06;;;13.99;64.97
11212;BME280;5663;50.864;12.096;2023-02-22T09:34:47;99273.16;;;14.07;64.72
11212;BME280;5663;50.864;12.096;2023-02-22T09:37:18;99273.09;;;14.21;65.07
11212;BME280;5663;50.864;12.096;2023-02-22T09:39:50;99266.19;;;14.33;64.48
11212;BME280;5663;50.864;12.096;2023-02-22T09:42:27;99262.09;;;14.42;64.43
11212;BME280;5663;50.864;12.096;2023-02-22T09:45:07;99270.09;;;14.53;64.45
11212;BME280;5663;50.864;12.096;2023-02-22T09:47:46;99258.25;;;14.60;64.08
11212;BME280;5663;50.864;12.096;2023-02-22T09:50:23;99259.78;;;14.75;63.58
11212;BME280;5663;50.864;12.096;2023-02-22T09:53:01;99262.69;;;14.84;63.26
11212;BME280;5663;50.864;12.096;2023-02-22T09:55:38;99260.06;;;14.96;63.31
11212;BME280;5663;50.864;12.096;2023-02-22T09:58:25;99258.38;;;15.08;62.59
11212;BME280;5663;50.864;12.096;2023-02-22T10:01:13;99246.00;;;15.10;60.91
11212;BME280;5663;50.864;12.096;2023-02-22T10:04:03;99252.47;;;15.17;60.60
11212;BME280;5663;50.864;12.096;2023-02-22T10:06:34;99255.16;;;15.28;60.96
11212;BME280;5663;50.864;12.096;2023-02-22T10:09:05;99256.06;;;15.40;60.42
11212;BME280;5663;50.864;12.096;2023-02-22T10:11:46;99228.63;;;15.33;59.59
11212;BME280;5663;50.864;12.096;2023-02-22T10:14:41;99251.38;;;15.57;59.43
11212;BME280;5663;50.864;12.096;2023-02-22T10:17:17;99235.50;;;15.58;58.53
11212;BME280;5663;50.864;12.096;2023-02-22T10:20:01;99223.72;;;15.52;58.30
11212;BME280;5663;50.864;12.096;2023-02-22T10:22:55;99242.94;;;15.64;58.45
11212;BME280;5663;50.864;12.096;2023-02-22T10:25:26;99225.31;;;15.66;58.08
11212;BME280;5663;50.864;12.096;2023-02-22T10:30:56;99231.22;;;15.81;57.66
11212;BME280;5663;50.864;12.096;2023-02-22T10:33:32;99233.94;;;15.80;57.66
11212;BME280;5663;50.864;12.096;2023-02-22T10:36:21;99229.09;;;15.86;57.57
11212;BME280;5663;50.864;12.096;2023-02-22T10:38:58;99225.50;;;15.87;57.13
11212;BME280;5663;50.864;12.096;2023-02-22T10:41:31;99220.84;;;15.91;58.01
11212;BME280;5663;50.864;12.096;2023-02-22T10:44:08;99223.38;;;16.04;57.00
11212;BME280;5663;50.864;12.096;2023-02-22T10:46:45;99216.84;;;16.09;57.34
11212;BME280;5663;50.864;12.096;2023-02-22T10:49:21;99214.34;;;16.19;57.21
11212;BME280;5663;50.864;12.096;2023-02-22T10:52:03;99211.38;;;16.23;56.87
11212;BME280;5663;50.864;12.096;2023-02-22T10:54:39;99210.09;;;16.29;56.68
11212;BME280;5663;50.864;12.096;2023-02-22T10:57:11;99206.13;;;16.35;56.41
11212;BME280;5663;50.864;12.096;2023-02-22T10:59:52;99205.78;;;16.39;56.63
11212;BME280;5663;50.864;12.096;2023-02-22T11:02:28;99193.97;;;16.45;56.32
11212;BME280;5663;50.864;12.096;2023-02-22T11:04:59;99201.13;;;16.54;55.84
11212;BME280;5663;50.864;12.096;2023-02-22T11:07:38;99189.06;;;16.51;55.55
11212;BME280;5663;50.864;12.096;2023-02-22T11:10:09;99201.03;;;16.56;56.05
11212;BME280;5663;50.864;12.096;2023-02-22T11:12:44;99187.53;;;16.60;55.95
11212;BME280;5663;50.864;12.096;2023-02-22T11:15:27;99185.13;;;16.68;55.12
11212;BME280;5663;50.864;12.096;2023-02-22T11:18:03;99189.19;;;16.72;56.27
11212;BME280;5663;50.864;12.096;2023-02-22T11:20:39;99186.91;;;16.79;55.80
11212;BME280;5663;50.864;12.096;2023-02-22T11:23:20;99171.28;;;16.78;54.89
11212;BME280;5663;50.864;12.096;2023-02-22T11:26:04;99179.53;;;16.84;54.36
11212;BME280;5663;50.864;12.096;2023-02-22T11:28:59;99169.25;;;16.81;55.14
11212;BME280;5663;50.864;12.096;2023-02-22T11:32:11;99165.50;;;16.95;54.09
11212;BME280;5663;50.864;12.096;2023-02-22T11:34:41;99168.34;;;17.03;54.23
11212;BME280;5663;50.864;12.096;2023-02-22T11:37:33;99164.78;;;17.04;53.97
11212;BME280;5663;50.864;12.096;2023-02-22T11:40:12;99158.06;;;17.11;54.50
11212;BME280;5663;50.864;12.096;2023-02-22T11:42:43;99143.59;;;17.17;54.14
11212;BME280;5663;50.864;12.096;2023-02-22T11:45:13;99142.00;;;17.26;54.56
11212;BME280;5663;50.864;12.096;2023-02-22T11:47:51;99142.94;;;17.36;53.98
11212;BME280;5663;50.864;12.096;2023-02-22T11:50:27;99142.41;;;17.42;54.29
11212;BME280;5663;50.864;12.096;2023-02-22T11:53:24;99139.97;;;17.50;52.44
11212;BME280;5663;50.864;12.096;2023-02-22T11:56:27;99136.53;;;17.49;52.44
11212;BME280;5663;50.864;12.096;2023-02-22T11:59:24;99129.69;;;17.47;53.41
11212;BME280;5663;50.864;12.096;2023-02-22T12:02:22;99127.16;;;17.57;52.36
11212;BME280;5663;50.864;12.096;2023-02-22T12:05:14;99127.34;;;17.65;53.94
11212;BME280;5663;50.864;12.096;2023-02-22T12:08:07;99123.50;;;17.69;53.12
11212;BME280;5663;50.864;12.096;2023-02-22T12:11:00;99111.91;;;17.71;53.83
11212;BME280;5663;50.864;12.096;2023-02-22T12:13:50;99119.22;;;17.89;53.52
11212;BME280;5663;50.864;12.096;2023-02-22T12:16:31;99114.78;;;17.89;53.04
11212;BME280;5663;50.864;12.096;2023-02-22T12:19:20;99117.56;;;17.88;52.06
11212;BME280;5663;50.864;12.096;2023-02-22T12:21:58;99116.78;;;17.76;52.97
11212;BME280;5663;50.864;12.096;2023-02-22T12:24:33;99104.69;;;17.73;52.94
11212;BME280;5663;50.864;12.096;2023-02-22T12:27:06;99107.53;;;17.82;53.00
11212;BME280;5663;50.864;12.096;2023-02-22T12:29:41;99052.56;;;17.58;52.82
11212;BME280;5663;50.864;12.096;2023-02-22T12:32:15;99101.94;;;17.96;53.37
11212;BME280;5663;50.864;12.096;2023-02-22T12:34:49;99092.66;;;18.02;53.21
11212;BME280;5663;50.864;12.096;2023-02-22T12:37:22;99100.72;;;18.00;52.57
11212;BME280;5663;50.864;12.096;2023-02-22T12:39:57;99098.16;;;17.89;53.13
11212;BME280;5663;50.864;12.096;2023-02-22T12:42:32;99067.19;;;17.71;53.00
11212;BME280;5663;50.864;12.096;2023-02-22T12:45:06;99091.25;;;17.88;52.84
11212;BME280;5663;50.864;12.096;2023-02-22T12:47:44;99101.47;;;17.91;52.39
11212;BME280;5663;50.864;12.096;2023-02-22T12:50:19;99093.94;;;17.77;52.49
11212;BME280;5663;50.864;12.096;2023-02-22T12:52:52;99097.69;;;17.63;53.00
11212;BME280;5663;50.864;12.096;2023-02-22T12:55:24;99104.56;;;17.54;52.78
11212;BME280;5663;50.864;12.096;2023-02-22T12:57:57;99102.91;;;17.53;53.22
11212;BME280;5663;50.864;12.096;2023-02-22T13:00:34;99097.66;;;17.53;53.22
11212;BME280;5663;50.864;12.096;2023-02-22T13:03:35;99093.94;;;17.56;52.74
11212;BME280;5663;50.864;12.096;2023-02-22T13:09:24;99089.13;;;17.61;52.43
11212;BME280;5663;50.864;12.096;2023-02-22T13:12:00;99059.34;;;17.39;53.14
11212;BME280;5663;50.864;12.096;2023-02-22T13:14:37;99089.31;;;17.48;52.76
11212;BME280;5663;50.864;12.096;2023-02-22T13:17:14;99085.28;;;17.44;53.17
11212;BME280;5663;50.864;12.096;2023-02-22T13:19:51;99074.31;;;17.39;53.36
11212;BME280;5663;50.864;12.096;2023-02-22T13:22:27;99070.78;;;17.49;53.53
11212;BME280;5663;50.864;12.096;2023-02-22T13:25:09;99078.03;;;17.57;53.73
11212;BME280;5663;50.864;12.096;2023-02-22T13:27:42;99068.91;;;17.61;53.25
11212;BME280;5663;50.864;12.096;2023-02-22T13:30:20;99075.84;;;17.62;53.06
11212;BME280;5663;50.864;12.096;2023-02-22T13:36:07;99077.75;;;17.39;53.29
11212;BME280;5663;50.864;12.096;2023-02-22T13:39:03;99062.66;;;17.32;53.59
11212;BME280;5663;50.864;12.096;2023-02-22T13:41:50;99069.38;;;17.24;53.61
11212;BME280;5663;50.864;12.096;2023-02-22T13:44:40;99067.25;;;17.18;54.01
11212;BME280;5663;50.864;12.096;2023-02-22T13:47:34;99061.81;;;17.10;54.34
11212;BME280;5663;50.864;12.096;2023-02-22T13:50:32;99072.50;;;17.18;54.18